Terminal Aerodrome Forecast
Issued by NWS

Home | Current Version | Previous Version | Text Only | Print | Product List | Glossary On
Versions: 1 2 3 4 5 6 7 8 9 10 11 12 13 14 15 16 17 18 19 20 21 22 23 24 25 26 27 28 29
788
FTUS41 KBOX 052320
TAFACK
TAF
KACK 052320Z 0600/0624 32024G39KT 2SM -SN BKN010
     FM060130 33023G36KT P6SM BKN120
     FM060400 33019G28KT P6SM FEW250
     FM060800 34011G19KT P6SM SKC
     FM061100 34008KT P6SM FEW250
     FM061600 30007KT P6SM SCT250
     FM061700 26007KT P6SM SCT200=

USA.gov is the U.S. government's official web portal to all federal, state and local government web resources and services.